createdAt,value
2023-11-15T08:23:36.481Z,13.76
2023-11-15T08:26:04.896Z,13.00
2023-11-15T08:28:32.890Z,13.13
2023-11-15T08:31:00.950Z,13.27
2023-11-15T08:33:29.290Z,13.33
2023-11-15T08:35:57.767Z,13.56
2023-11-15T08:38:26.152Z,13.62
2023-11-15T08:40:56.957Z,13.55
2023-11-15T08:43:25.011Z,13.80
2023-11-15T08:45:53.068Z,13.02
2023-11-15T08:48:21.580Z,12.80
2023-11-15T08:50:49.751Z,12.89
2023-11-15T08:53:19.944Z,13.29
2023-11-15T08:55:50.334Z,13.34
2023-11-15T08:58:22.817Z,13.42
2023-11-15T09:00:51.553Z,13.59
2023-11-15T09:03:19.643Z,13.81
2023-11-15T09:05:49.211Z,13.82
2023-11-15T09:08:17.374Z,13.55
2023-11-15T09:10:45.333Z,13.70
2023-11-15T09:13:16.517Z,13.34
2023-11-15T09:15:47.648Z,13.43
2023-11-15T09:18:16.252Z,13.81
2023-11-15T09:20:44.878Z,13.67
2023-11-15T09:23:22.372Z,13.93
2023-11-15T09:26:00.106Z,13.45
2023-11-15T09:28:28.541Z,13.53
2023-11-15T09:30:58.009Z,13.73
2023-11-15T09:33:30.893Z,13.46
2023-11-15T09:36:01.550Z,13.59
2023-11-15T09:38:30.225Z,13.29
2023-11-15T09:41:01.056Z,13.56
2023-11-15T09:43:29.980Z,13.44
2023-11-15T09:46:00.636Z,13.22
2023-11-15T09:48:29.206Z,13.47
2023-11-15T09:50:59.210Z,13.47
2023-11-15T09:53:30.304Z,13.74
2023-11-15T09:56:00.446Z,13.47
2023-11-15T09:58:28.330Z,13.92
2023-11-15T10:00:56.420Z,14.10
2023-11-15T10:03:25.847Z,14.11
2023-11-15T10:06:00.853Z,14.12
2023-11-15T10:08:30.081Z,14.35
2023-11-15T10:11:10.289Z,13.86
2023-11-15T10:13:39.076Z,14.10
2023-11-15T10:16:23.301Z,14.49
2023-11-15T10:18:53.265Z,14.41
2023-11-15T10:21:21.771Z,13.78
2023-11-15T10:23:50.205Z,13.85
2023-11-15T10:26:18.766Z,14.05
2023-11-15T10:28:47.324Z,14.37
2023-11-15T10:31:19.603Z,13.86
2023-11-15T10:33:54.982Z,14.34
2023-11-15T10:36:24.682Z,14.36
2023-11-15T10:38:56.617Z,14.25
2023-11-15T10:41:26.728Z,14.24
2023-11-15T10:43:56.281Z,14.40
2023-11-15T10:46:28.131Z,14.32
2023-11-15T10:48:58.921Z,13.95
2023-11-15T10:51:33.336Z,13.81
2023-11-15T10:54:02.361Z,13.85
2023-11-15T10:56:32.900Z,13.48
2023-11-15T10:59:05.475Z,14.04
2023-11-15T11:01:35.442Z,14.34
2023-11-15T11:04:08.824Z,13.97
2023-11-15T11:06:42.873Z,14.03
2023-11-15T11:09:19.840Z,13.96
2023-11-15T11:11:54.989Z,14.08
2023-11-15T11:14:27.806Z,14.17
2023-11-15T11:16:57.822Z,13.81
2023-11-15T11:19:28.038Z,13.73
2023-11-15T11:22:07.257Z,13.44
2023-11-15T11:24:39.685Z,13.28
2023-11-15T11:27:37.763Z,13.86
2023-11-15T11:30:21.282Z,13.92
2023-11-15T11:32:51.643Z,14.23
2023-11-15T11:35:35.842Z,13.83
2023-11-15T11:38:05.496Z,14.10
2023-11-15T11:40:40.075Z,13.84
2023-11-15T11:43:17.100Z,14.18
2023-11-15T11:45:46.590Z,14.11
2023-11-15T11:48:25.243Z,14.11
2023-11-15T11:51:00.631Z,13.48
2023-11-15T11:53:29.356Z,14.16
2023-11-15T11:55:58.521Z,14.25
2023-11-15T11:58:29.132Z,14.15
2023-11-15T12:01:02.474Z,14.29
2023-11-15T12:03:31.944Z,14.13
2023-11-15T12:06:12.390Z,14.37
2023-11-15T12:08:42.201Z,14.52
2023-11-15T12:11:11.900Z,13.91
2023-11-15T12:13:44.629Z,14.07
2023-11-15T12:16:20.619Z,13.83
2023-11-15T12:19:04.804Z,14.15
2023-11-15T12:21:35.779Z,13.82
2023-11-15T12:24:07.884Z,14.44
2023-11-15T12:26:47.200Z,14.35
2023-11-15T12:29:23.496Z,13.86
2023-11-15T12:31:52.512Z,14.18
2023-11-15T12:34:22.238Z,14.61
2023-11-15T12:36:52.561Z,14.51
2023-11-15T12:39:22.899Z,14.30
2023-11-15T12:41:53.807Z,14.32
2023-11-15T12:44:22.648Z,14.58
2023-11-15T12:46:55.374Z,14.26
2023-11-15T12:49:26.510Z,14.59
2023-11-15T12:51:55.905Z,14.66
2023-11-15T12:54:24.117Z,14.87
2023-11-15T12:57:06.053Z,14.36
2023-11-15T12:59:37.466Z,14.38
2023-11-15T13:02:06.289Z,14.41
2023-11-15T13:04:53.135Z,14.86
2023-11-15T13:07:22.863Z,14.66
2023-11-15T13:09:50.846Z,14.16
2023-11-15T13:12:26.982Z,14.40
2023-11-15T13:14:55.782Z,14.62
2023-11-15T13:17:24.609Z,14.19
2023-11-15T13:19:52.652Z,14.68
2023-11-15T13:22:22.026Z,14.91
2023-11-15T13:24:51.150Z,15.06
2023-11-15T13:27:21.606Z,14.38
2023-11-15T13:29:50.492Z,14.73
2023-11-15T13:32:18.501Z,15.01
2023-11-15T13:34:48.070Z,14.91
2023-11-15T13:37:16.542Z,14.51
2023-11-15T13:39:45.940Z,14.92
2023-11-15T13:42:13.874Z,15.05
2023-11-15T13:44:41.814Z,14.14
2023-11-15T13:47:09.919Z,14.43
2023-11-15T13:49:39.231Z,14.59
2023-11-15T13:52:08.073Z,14.51
2023-11-15T13:54:35.999Z,14.69
2023-11-15T13:57:06.184Z,14.77
2023-11-15T13:59:36.508Z,14.66
2023-11-15T14:02:04.666Z,15.18
2023-11-15T14:04:32.593Z,14.58
2023-11-15T14:07:00.521Z,15.02
2023-11-15T14:09:30.000Z,15.04
2023-11-15T14:12:00.078Z,15.02
2023-11-15T14:14:29.952Z,15.22
2023-11-15T14:17:00.503Z,14.96
2023-11-15T14:19:28.741Z,15.34
2023-11-15T14:21:57.049Z,14.86
2023-11-15T14:24:25.038Z,14.99
2023-11-15T14:26:53.063Z,14.59
2023-11-15T14:29:22.151Z,14.76
2023-11-15T14:31:51.710Z,14.85
2023-11-15T14:34:21.070Z,15.14
2023-11-15T14:36:50.077Z,15.13
2023-11-15T14:39:22.784Z,15.08
2023-11-15T14:41:50.918Z,14.83
2023-11-15T14:44:18.840Z,14.95
2023-11-15T14:46:47.017Z,14.72
2023-11-15T14:49:16.753Z,14.94
2023-11-15T14:51:49.650Z,14.88
2023-11-15T14:54:22.037Z,14.29
2023-11-15T14:56:50.494Z,14.39
2023-11-15T14:59:19.050Z,14.34
2023-11-15T15:01:47.518Z,14.27
2023-11-15T15:04:17.208Z,14.36
2023-11-15T15:06:46.621Z,14.42
2023-11-15T15:09:15.939Z,14.35
2023-11-15T15:11:47.020Z,14.09
2023-11-15T15:14:16.893Z,14.35
2023-11-15T15:16:44.981Z,14.38
2023-11-15T15:19:12.935Z,13.84
2023-11-15T15:21:45.965Z,14.23
2023-11-15T15:24:13.960Z,14.15
2023-11-15T15:26:42.105Z,14.03
2023-11-15T15:29:18.478Z,14.06
2023-11-15T15:31:50.360Z,13.78
2023-11-15T15:34:18.325Z,14.14
2023-11-15T15:36:47.657Z,14.32
2023-11-15T15:39:16.807Z,14.22
2023-11-15T15:41:44.823Z,14.30
2023-11-15T15:44:12.765Z,14.39
2023-11-15T15:46:40.678Z,14.20
2023-11-15T15:49:08.842Z,14.21
2023-11-15T15:51:36.841Z,14.11
2023-11-15T15:54:07.244Z,14.17
2023-11-15T15:56:35.257Z,14.33
2023-11-15T15:59:03.574Z,14.08
2023-11-15T16:01:31.522Z,13.68
2023-11-15T16:04:00.822Z,13.98
2023-11-15T16:06:28.864Z,14.07
2023-11-15T16:08:57.047Z,14.23
2023-11-15T16:11:26.631Z,14.21
2023-11-15T16:13:55.046Z,14.13
2023-11-15T16:16:23.081Z,14.10
2023-11-15T16:18:51.957Z,13.91
2023-11-15T16:21:20.007Z,13.82
2023-11-15T16:23:48.041Z,13.89
2023-11-15T16:26:17.883Z,13.82
2023-11-15T16:28:47.302Z,13.48
2023-11-15T16:31:16.640Z,13.64
2023-11-15T16:33:45.178Z,13.53
2023-11-15T16:36:13.314Z,13.68
2023-11-15T16:38:44.986Z,13.72
2023-11-15T16:41:16.627Z,13.70
2023-11-15T16:43:44.629Z,13.61
2023-11-15T16:46:14.036Z,13.51
2023-11-15T16:48:44.928Z,13.46
2023-11-15T16:51:13.667Z,13.46
2023-11-15T16:53:42.133Z,13.58
2023-11-15T16:56:11.461Z,13.57
2023-11-15T16:58:39.498Z,13.60
2023-11-15T17:01:09.074Z,13.53
2023-11-15T17:03:38.613Z,13.53
2023-11-15T17:06:07.384Z,13.48
2023-11-15T17:08:36.048Z,13.32
2023-11-15T17:11:04.056Z,13.33
2023-11-15T17:13:32.041Z,13.43
2023-11-15T17:15:59.931Z,13.16
2023-11-15T17:18:27.894Z,13.12
2023-11-15T17:20:59.742Z,13.33
2023-11-15T17:23:27.952Z,13.26
2023-11-15T17:25:56.209Z,13.35
2023-11-15T17:28:24.657Z,13.29
2023-11-15T17:30:52.543Z,13.24
2023-11-15T17:33:20.608Z,13.08
2023-11-15T17:35:49.198Z,13.14
2023-11-15T17:38:18.868Z,13.04
2023-11-15T17:40:47.690Z,13.08
2023-11-15T17:43:14.894Z,13.19
2023-11-15T17:45:43.048Z,13.03
2023-11-15T17:48:11.603Z,13.14
2023-11-15T17:50:39.985Z,13.05
2023-11-15T17:53:08.316Z,13.16
2023-11-15T17:55:37.712Z,13.18
2023-11-15T17:58:08.046Z,13.06
2023-11-15T18:00:36.618Z,12.97
2023-11-15T18:03:04.666Z,13.09
2023-11-15T18:05:32.900Z,13.02
2023-11-15T18:08:00.891Z,12.89
2023-11-15T18:10:29.924Z,12.86
2023-11-15T18:12:59.759Z,12.86
2023-11-15T18:15:28.314Z,13.06
2023-11-15T18:17:56.321Z,13.02
2023-11-15T18:20:25.014Z,13.10
2023-11-15T18:22:55.295Z,13.08
2023-11-15T18:25:23.618Z,13.00
2023-11-15T18:27:51.551Z,13.36
2023-11-15T18:30:20.924Z,13.10
2023-11-15T18:32:49.413Z,13.26
2023-11-15T18:35:18.077Z,13.36
2023-11-15T18:37:46.019Z,13.39
2023-11-15T18:40:17.966Z,13.42
2023-11-15T18:42:46.147Z,13.29
2023-11-15T18:45:14.243Z,13.30
2023-11-15T18:47:45.253Z,13.37
2023-11-15T18:50:15.610Z,13.09
2023-11-15T18:52:44.760Z,13.26
2023-11-15T18:55:15.384Z,13.21
2023-11-15T18:57:45.615Z,13.35
2023-11-15T19:00:19.418Z,13.33
2023-11-15T19:02:49.582Z,13.12
2023-11-15T19:05:19.235Z,13.24
2023-11-15T19:07:49.658Z,13.32
2023-11-15T19:10:18.927Z,13.29
2023-11-15T19:12:49.545Z,13.35
2023-11-15T19:15:18.038Z,13.42
2023-11-15T19:17:51.230Z,13.26
2023-11-15T19:20:22.412Z,13.26
2023-11-15T19:22:51.920Z,13.34
2023-11-15T19:25:20.194Z,13.22
2023-11-15T19:27:48.603Z,13.30
2023-11-15T19:30:17.585Z,13.35
2023-11-15T19:32:46.735Z,13.47
2023-11-15T19:35:18.041Z,13.42
2023-11-15T19:37:47.517Z,13.38
2023-11-15T19:40:16.410Z,13.42
2023-11-15T19:42:44.904Z,13.44
2023-11-15T19:45:13.489Z,13.65
2023-11-15T19:47:42.129Z,13.66
2023-11-15T19:50:10.205Z,13.61
2023-11-15T19:52:38.334Z,13.26
2023-11-15T19:55:09.367Z,13.38
2023-11-15T19:57:38.334Z,13.41
2023-11-15T20:00:12.113Z,13.36
2023-11-15T20:02:46.202Z,12.97
2023-11-15T20:05:16.087Z,13.01
2023-11-15T20:07:44.263Z,13.19
2023-11-15T20:10:14.185Z,13.24
2023-11-15T20:12:42.812Z,13.18
2023-11-15T20:15:12.277Z,13.12
2023-11-15T20:17:40.652Z,13.21
2023-11-15T20:20:09.651Z,13.32
2023-11-15T20:22:45.534Z,13.25
2023-11-15T20:25:21.510Z,12.92
2023-11-15T20:27:49.495Z,13.01
2023-11-15T20:30:19.462Z,13.20
2023-11-15T20:32:48.038Z,12.91
2023-11-15T20:35:16.614Z,13.11
2023-11-15T20:40:16.432Z,12.90
2023-11-15T20:42:48.629Z,12.97
2023-11-15T20:45:16.987Z,13.12
2023-11-15T20:47:46.055Z,12.77
2023-11-15T20:50:14.505Z,13.05
2023-11-15T20:52:42.782Z,13.12
2023-11-15T20:55:12.157Z,13.09
2023-11-15T20:57:40.702Z,13.14
2023-11-15T21:00:13.639Z,13.07
2023-11-15T21:02:42.269Z,13.29
2023-11-15T21:05:12.829Z,13.25
2023-11-15T21:07:41.209Z,13.00
2023-11-15T21:10:10.967Z,12.87
2023-11-15T21:12:39.398Z,13.04
2023-11-15T21:15:10.769Z,13.26
2023-11-15T21:17:40.318Z,13.08
2023-11-15T21:20:12.224Z,12.96
2023-11-15T21:22:42.456Z,12.75
2023-11-15T21:25:13.746Z,12.85
2023-11-15T21:27:42.250Z,13.15
2023-11-15T21:30:12.720Z,12.98
2023-11-15T21:32:43.298Z,12.25
2023-11-15T21:35:12.200Z,12.61
2023-11-15T21:37:41.897Z,12.79
2023-11-15T21:40:12.544Z,12.77
2023-11-15T21:42:41.165Z,12.63
2023-11-15T21:45:12.171Z,12.75
2023-11-15T21:47:40.590Z,12.85
2023-11-15T21:50:11.336Z,12.59
2023-11-15T21:52:38.382Z,12.76
2023-11-15T21:55:07.112Z,13.03
2023-11-15T21:57:35.544Z,12.73
2023-11-15T22:00:05.057Z,13.07
2023-11-15T22:02:33.026Z,12.97
2023-11-15T22:05:01.043Z,12.91
2023-11-15T22:07:30.889Z,12.76
2023-11-15T22:09:58.968Z,12.96
2023-11-15T22:12:27.378Z,13.15
2023-11-15T22:14:55.627Z,12.97
2023-11-15T22:17:23.598Z,13.07
2023-11-15T22:19:52.232Z,13.15
2023-11-15T22:22:20.140Z,13.09
2023-11-15T22:24:49.337Z,13.32
2023-11-15T22:27:17.304Z,13.09
2023-11-15T22:29:45.222Z,12.86
2023-11-15T22:32:13.242Z,12.87
2023-11-15T22:34:41.184Z,12.94
2023-11-15T22:37:10.065Z,13.04
2023-11-15T22:39:39.027Z,12.94
2023-11-15T22:42:09.065Z,12.78
2023-11-15T22:44:38.074Z,13.14
2023-11-15T22:47:07.012Z,13.07
2023-11-15T22:49:34.948Z,13.20
2023-11-15T22:52:02.962Z,12.91
2023-11-15T22:54:30.983Z,13.22
2023-11-15T22:56:58.985Z,13.10
2023-11-15T22:59:28.815Z,13.05
2023-11-15T23:01:56.752Z,13.05
2023-11-15T23:04:24.870Z,12.82
2023-11-15T23:06:55.247Z,12.78
2023-11-15T23:09:23.394Z,12.97
2023-11-15T23:11:51.680Z,12.87
2023-11-15T23:14:19.696Z,13.10
2023-11-15T23:16:49.412Z,13.07
2023-11-15T23:19:17.576Z,13.07
2023-11-15T23:21:54.777Z,13.29
2023-11-15T23:24:27.696Z,13.16
2023-11-15T23:26:58.867Z,12.98
2023-11-15T23:29:28.519Z,12.76
2023-11-15T23:31:58.232Z,13.30
2023-11-15T23:34:26.429Z,13.06
2023-11-15T23:36:55.210Z,12.90
2023-11-15T23:39:25.279Z,12.96
2023-11-15T23:41:53.234Z,12.79
2023-11-15T23:44:21.207Z,13.22
2023-11-15T23:46:52.197Z,13.09
2023-11-15T23:49:22.438Z,13.19
2023-11-15T23:51:51.049Z,13.27
2023-11-15T23:54:19.216Z,13.10
2023-11-15T23:56:47.223Z,13.14
2023-11-15T23:59:15.124Z,13.40
